createdAt,value
2023-05-13T00:01:42.315Z,4.70
2023-05-13T00:04:10.691Z,3.58
2023-05-13T00:06:40.271Z,3.63
2023-05-13T00:09:08.468Z,2.95
2023-05-13T00:11:36.573Z,3.65
2023-05-13T00:14:04.966Z,3.72
2023-05-13T00:16:33.151Z,3.20
2023-05-13T00:19:01.405Z,2.78
2023-05-13T00:21:29.595Z,2.47
2023-05-13T00:23:59.157Z,2.80
2023-05-13T00:26:27.271Z,2.45
2023-05-13T00:28:55.478Z,2.88
2023-05-13T00:31:23.585Z,3.47
2023-05-13T00:33:51.673Z,3.40
2023-05-13T00:36:19.753Z,2.95
2023-05-13T00:38:47.777Z,3.40
2023-05-13T00:41:18.526Z,3.10
2023-05-13T00:43:46.591Z,4.38
2023-05-13T00:46:15.677Z,5.25
2023-05-13T00:48:44.030Z,4.20
2023-05-13T00:51:12.105Z,4.47
2023-05-13T00:53:41.210Z,47.65
2023-05-13T00:56:09.345Z,24.55
2023-05-13T00:58:38.770Z,17.30
2023-05-13T01:01:14.466Z,9.25
2023-05-13T01:03:49.450Z,7.82
2023-05-13T01:06:22.561Z,7.55
2023-05-13T01:08:58.162Z,7.30
2023-05-13T01:11:30.100Z,6.43
2023-05-13T01:16:37.169Z,4.43
2023-05-13T01:19:13.948Z,4.40
2023-05-13T01:21:43.550Z,3.83
2023-05-13T01:24:11.661Z,3.75
2023-05-13T01:26:39.915Z,3.03
2023-05-13T01:29:08.021Z,3.40
2023-05-13T01:31:36.650Z,3.70
2023-05-13T01:34:06.871Z,3.42
2023-05-13T01:36:34.946Z,3.47
2023-05-13T01:39:04.844Z,3.85
2023-05-13T01:41:33.045Z,3.30
2023-05-13T01:44:01.141Z,3.88
2023-05-13T01:46:29.420Z,3.80
2023-05-13T01:48:57.558Z,3.47
2023-05-13T01:51:25.756Z,3.60
2023-05-13T01:53:53.808Z,3.55
2023-05-13T01:56:23.740Z,3.85
2023-05-13T01:58:51.804Z,3.33
2023-05-13T02:01:21.882Z,3.45
2023-05-13T02:03:50.900Z,3.92
2023-05-13T02:06:19.456Z,3.67
2023-05-13T02:08:47.482Z,3.97
2023-05-13T02:11:15.715Z,3.70
2023-05-13T02:13:45.120Z,3.42
2023-05-13T02:16:15.993Z,4.50
2023-05-13T02:18:44.112Z,3.80
2023-05-13T02:21:12.228Z,3.28
2023-05-13T02:23:40.325Z,4.30
2023-05-13T02:26:08.482Z,4.13
2023-05-13T02:28:36.590Z,3.88
2023-05-13T02:31:06.653Z,3.63
2023-05-13T02:33:34.837Z,4.30
2023-05-13T02:36:02.917Z,3.80
2023-05-13T02:38:31.236Z,4.03
2023-05-13T02:40:59.276Z,3.75
2023-05-13T02:43:27.607Z,4.05
2023-05-13T02:45:55.686Z,3.88
2023-05-13T02:48:25.172Z,3.80
2023-05-13T02:50:53.328Z,4.18
2023-05-13T02:53:21.367Z,4.03
2023-05-13T02:55:49.428Z,3.78
2023-05-13T02:58:18.358Z,3.78
2023-05-13T03:00:46.446Z,3.78
2023-05-13T03:03:14.614Z,3.72
2023-05-13T03:05:44.146Z,3.67
2023-05-13T03:08:12.205Z,3.50
2023-05-13T03:10:40.261Z,3.80
2023-05-13T03:13:08.291Z,3.45
2023-05-13T03:15:36.534Z,3.97
2023-05-13T03:18:04.813Z,3.58
2023-05-13T03:20:32.934Z,3.70
2023-05-13T03:23:02.374Z,3.95
2023-05-13T03:25:30.485Z,3.65
2023-05-13T03:27:58.647Z,3.95
2023-05-13T03:30:26.850Z,3.90
2023-05-13T03:32:54.991Z,4.10
2023-05-13T03:35:23.260Z,4.30
2023-05-13T03:37:51.302Z,4.28
2023-05-13T03:40:21.034Z,4.10
2023-05-13T03:42:49.299Z,4.22
2023-05-13T03:45:17.475Z,3.70
2023-05-13T03:47:45.694Z,3.47
2023-05-13T03:50:13.771Z,3.50
2023-05-13T03:52:41.841Z,4.03
2023-05-13T03:55:10.547Z,3.58
2023-05-13T03:57:39.957Z,3.80
2023-05-13T04:00:10.035Z,4.07
2023-05-13T04:02:38.167Z,3.40
2023-05-13T04:05:07.164Z,3.50
2023-05-13T04:07:35.279Z,4.80
2023-05-13T04:10:03.442Z,3.88
2023-05-13T04:12:33.371Z,3.63
2023-05-13T04:15:03.272Z,3.92
2023-05-13T04:17:31.380Z,3.38
2023-05-13T04:19:59.533Z,3.85
2023-05-13T04:22:27.588Z,4.50
2023-05-13T04:24:56.620Z,4.32
2023-05-13T04:27:25.109Z,3.78
2023-05-13T04:29:53.189Z,3.65
2023-05-13T04:32:22.972Z,3.25
2023-05-13T04:34:51.564Z,4.80
2023-05-13T04:37:19.655Z,5.30
2023-05-13T04:39:48.182Z,7.00
2023-05-13T04:42:16.522Z,24.00
2023-05-13T04:44:45.228Z,9.63
2023-05-13T04:47:13.343Z,6.35
2023-05-13T04:49:42.783Z,5.00
2023-05-13T04:52:12.948Z,5.00
2023-05-13T04:54:41.353Z,6.05
2023-05-13T04:57:09.573Z,5.97
2023-05-13T04:59:37.817Z,4.18
2023-05-13T05:02:06.398Z,4.00
2023-05-13T05:04:34.588Z,3.67
2023-05-13T05:07:04.048Z,4.22
2023-05-13T05:09:32.126Z,4.05
2023-05-13T05:12:00.178Z,4.57
2023-05-13T05:14:28.225Z,3.67
2023-05-13T05:16:56.326Z,4.10
2023-05-13T05:19:24.729Z,4.32
2023-05-13T05:21:52.995Z,5.40
2023-05-13T05:24:22.621Z,4.55
2023-05-13T05:26:50.726Z,4.78
2023-05-13T05:29:19.188Z,4.18
2023-05-13T05:31:47.434Z,4.78
2023-05-13T05:34:15.580Z,4.15
2023-05-13T05:36:43.710Z,4.55
2023-05-13T05:39:12.085Z,4.30
2023-05-13T05:41:41.808Z,4.30
2023-05-13T05:44:09.846Z,4.32
2023-05-13T05:46:37.880Z,3.90
2023-05-13T05:49:06.046Z,4.25
2023-05-13T05:51:34.072Z,4.38
2023-05-13T05:54:02.589Z,4.72
2023-05-13T05:56:31.851Z,4.68
2023-05-13T05:59:01.290Z,3.80
2023-05-13T06:01:33.710Z,4.18
2023-05-13T06:04:01.917Z,4.25
2023-05-13T06:06:30.182Z,3.70
2023-05-13T06:08:58.277Z,4.35
2023-05-13T06:11:26.361Z,4.25
2023-05-13T06:13:56.971Z,4.13
2023-05-13T06:16:26.605Z,4.72
2023-05-13T06:18:54.972Z,4.80
2023-05-13T06:21:23.056Z,4.97
2023-05-13T06:23:51.114Z,4.50
2023-05-13T06:26:19.223Z,3.88
2023-05-13T06:28:47.330Z,4.38
2023-05-13T06:31:15.900Z,4.75
2023-05-13T06:33:45.473Z,4.45
2023-05-13T06:36:14.085Z,4.80
2023-05-13T06:38:42.159Z,4.35
2023-05-13T06:41:10.407Z,4.57
2023-05-13T06:43:38.803Z,4.70
2023-05-13T06:46:06.938Z,4.57
2023-05-13T06:48:35.034Z,4.57
2023-05-13T06:51:05.241Z,4.57
2023-05-13T06:53:33.606Z,4.20
2023-05-13T06:56:01.672Z,4.18
2023-05-13T06:58:29.742Z,4.35
2023-05-13T07:00:57.823Z,4.47
2023-05-13T07:03:26.277Z,4.25
2023-05-13T07:05:55.564Z,4.53
2023-05-13T07:08:25.038Z,4.18
2023-05-13T07:10:53.081Z,4.38
2023-05-13T07:13:21.819Z,4.30
2023-05-13T07:15:50.070Z,4.40
2023-05-13T07:18:18.191Z,3.83
2023-05-13T07:20:46.537Z,4.03
2023-05-13T07:23:14.657Z,4.05
2023-05-13T07:25:44.142Z,3.60
2023-05-13T07:28:12.248Z,4.20
2023-05-13T07:30:41.648Z,3.80
2023-05-13T07:33:09.857Z,3.65
2023-05-13T07:35:38.017Z,3.90
2023-05-13T07:38:06.409Z,3.13
2023-05-13T07:40:34.495Z,3.30
2023-05-13T07:43:04.004Z,4.43
2023-05-13T07:45:32.172Z,3.05
2023-05-13T07:48:00.299Z,2.90
2023-05-13T07:50:28.370Z,2.53
2023-05-13T07:52:56.434Z,1.83
2023-05-13T07:55:24.571Z,1.58
2023-05-13T07:57:52.712Z,1.92
2023-05-13T08:00:22.436Z,1.65
2023-05-13T08:02:50.602Z,2.08
2023-05-13T08:05:18.791Z,2.83
2023-05-13T08:07:46.968Z,2.20
2023-05-13T08:10:15.079Z,2.08
2023-05-13T08:12:43.470Z,2.17
2023-05-13T08:15:14.341Z,2.33
2023-05-13T08:17:43.890Z,2.47
2023-05-13T08:20:12.786Z,2.15
2023-05-13T08:22:40.829Z,1.95
2023-05-13T08:25:11.213Z,2.08
2023-05-13T08:27:39.380Z,2.15
2023-05-13T08:30:08.792Z,2.00
2023-05-13T08:32:36.977Z,1.80
2023-05-13T08:35:07.287Z,2.28
2023-05-13T08:37:35.340Z,1.83
2023-05-13T08:40:04.495Z,2.15
2023-05-13T08:42:34.343Z,2.10
2023-05-13T08:45:04.876Z,1.83
2023-05-13T08:47:37.660Z,1.88
2023-05-13T08:50:08.160Z,2.40
2023-05-13T08:52:36.305Z,2.13
2023-05-13T08:55:06.295Z,1.92
2023-05-13T08:57:34.652Z,2.20
2023-05-13T09:00:02.888Z,1.55
2023-05-13T09:02:31.309Z,1.90
2023-05-13T09:05:03.423Z,1.88
2023-05-13T09:07:33.309Z,1.80
2023-05-13T09:10:01.472Z,2.17
2023-05-13T09:12:49.187Z,2.03
2023-05-13T09:15:18.708Z,1.90
2023-05-13T09:17:50.310Z,2.03
2023-05-13T09:20:19.627Z,1.85
2023-05-13T09:22:51.024Z,2.08
2023-05-13T09:25:20.719Z,1.90
2023-05-13T09:27:50.621Z,2.15
2023-05-13T09:30:18.746Z,1.80
2023-05-13T09:33:04.758Z,2.10
2023-05-13T09:35:33.556Z,2.15
2023-05-13T09:38:03.207Z,1.80
2023-05-13T09:40:31.320Z,1.80
2023-05-13T09:43:00.154Z,1.83
2023-05-13T09:45:28.315Z,1.92
2023-05-13T09:47:57.404Z,2.03
2023-05-13T09:50:25.728Z,1.98
2023-05-13T09:52:53.899Z,1.75
2023-05-13T09:55:27.132Z,1.80
2023-05-13T09:57:55.430Z,2.15
2023-05-13T10:00:32.148Z,2.28
2023-05-13T10:03:02.382Z,2.00
2023-05-13T10:05:31.210Z,2.10
2023-05-13T10:08:01.493Z,1.55
2023-05-13T10:10:33.171Z,1.92
2023-05-13T10:13:05.644Z,1.95
2023-05-13T10:15:34.225Z,2.83
2023-05-13T10:18:05.982Z,1.85
2023-05-13T10:20:35.575Z,1.80
2023-05-13T10:23:04.206Z,2.00
2023-05-13T10:25:34.068Z,2.00
2023-05-13T10:28:05.657Z,1.88
2023-05-13T10:30:36.002Z,2.17
2023-05-13T10:33:05.089Z,1.65
2023-05-13T10:35:39.204Z,2.17
2023-05-13T10:38:11.393Z,1.98
2023-05-13T10:41:01.573Z,1.98
2023-05-13T10:43:30.602Z,2.30
2023-05-13T10:46:00.899Z,2.25
2023-05-13T10:48:40.022Z,1.73
2023-05-13T10:51:08.956Z,2.00
2023-05-13T10:53:44.948Z,2.00
2023-05-13T10:56:14.548Z,1.80
2023-05-13T10:58:42.637Z,1.90
2023-05-13T11:01:15.548Z,1.70
2023-05-13T11:03:53.279Z,1.60
2023-05-13T11:06:23.631Z,1.45
2023-05-13T11:08:55.901Z,1.88
2023-05-13T11:11:28.248Z,1.88
2023-05-13T11:14:03.321Z,1.70
2023-05-13T11:16:31.469Z,1.77
2023-05-13T11:19:02.138Z,1.92
2023-05-13T11:21:31.907Z,2.00
2023-05-13T11:24:03.859Z,1.73
2023-05-13T11:26:50.243Z,2.03
2023-05-13T11:29:29.878Z,1.90
2023-05-13T11:32:00.355Z,1.83
2023-05-13T11:34:29.738Z,1.90
2023-05-13T11:37:07.652Z,1.70
2023-05-13T11:39:36.240Z,1.80
2023-05-13T11:42:08.585Z,1.50
2023-05-13T11:44:37.748Z,1.70
2023-05-13T11:47:08.150Z,1.58
2023-05-13T11:49:41.145Z,2.00
2023-05-13T11:52:11.265Z,1.35
2023-05-13T11:54:48.298Z,1.40
2023-05-13T11:57:20.739Z,1.40
2023-05-13T11:59:56.974Z,1.80
2023-05-13T12:02:26.712Z,1.85
2023-05-13T12:04:54.935Z,1.40
2023-05-13T12:07:25.065Z,1.73
2023-05-13T12:09:54.249Z,1.88
2023-05-13T12:12:23.981Z,1.45
2023-05-13T12:14:52.977Z,1.70
2023-05-13T12:17:22.208Z,1.92
2023-05-13T12:20:07.278Z,1.42
2023-05-13T12:22:35.841Z,1.30
2023-05-13T12:25:40.553Z,1.45
2023-05-13T12:28:11.941Z,1.50
2023-05-13T12:30:41.146Z,1.30
2023-05-13T12:33:15.206Z,1.58
2023-05-13T12:35:43.544Z,1.60
2023-05-13T12:38:17.144Z,1.63
2023-05-13T12:40:45.641Z,1.70
2023-05-13T12:43:15.550Z,1.45
2023-05-13T12:45:45.227Z,1.83
2023-05-13T12:48:14.488Z,1.55
2023-05-13T12:50:42.585Z,1.80
2023-05-13T12:53:10.630Z,1.23
2023-05-13T12:55:40.165Z,1.17
2023-05-13T12:58:11.331Z,1.75
2023-05-13T13:00:40.909Z,1.60
2023-05-13T13:03:09.249Z,1.42
2023-05-13T13:05:37.400Z,1.50
2023-05-13T13:08:06.302Z,1.23
2023-05-13T13:10:34.792Z,1.73
2023-05-13T13:13:03.018Z,1.30
2023-05-13T13:15:31.159Z,1.48
2023-05-13T13:18:00.968Z,1.20
2023-05-13T13:20:29.071Z,1.17
2023-05-13T13:22:57.103Z,1.30
2023-05-13T13:25:25.119Z,1.20
2023-05-13T13:27:53.157Z,2.05
2023-05-13T13:30:21.351Z,1.35
2023-05-13T13:32:49.468Z,1.20
2023-05-13T13:35:19.301Z,1.77
2023-05-13T13:37:47.487Z,1.67
2023-05-13T13:40:15.782Z,1.65
2023-05-13T13:42:45.128Z,1.80
2023-05-13T13:45:13.787Z,1.77
2023-05-13T13:47:42.222Z,2.08
2023-05-13T13:50:11.299Z,2.03
2023-05-13T13:52:40.785Z,2.03
2023-05-13T13:55:11.553Z,1.83
2023-05-13T13:57:39.780Z,1.43
2023-05-13T14:00:09.417Z,1.77
2023-05-13T14:02:37.810Z,1.77
2023-05-13T14:05:06.740Z,1.60
2023-05-13T14:07:35.049Z,1.83
2023-05-13T14:10:04.737Z,1.98
2023-05-13T14:12:32.949Z,2.05
2023-05-13T14:15:01.065Z,1.88
2023-05-13T14:17:29.159Z,1.95
2023-05-13T14:19:57.206Z,1.80
2023-05-13T14:22:25.584Z,1.48
2023-05-13T14:24:53.932Z,1.40
2023-05-13T14:27:24.590Z,1.48
2023-05-13T14:29:52.864Z,1.30
2023-05-13T14:32:21.002Z,1.20
2023-05-13T14:34:49.034Z,1.50
2023-05-13T14:37:17.100Z,1.70
2023-05-13T14:39:47.022Z,1.55
2023-05-13T14:42:16.478Z,1.65
2023-05-13T14:44:46.172Z,1.33
2023-05-13T14:47:14.265Z,1.80
2023-05-13T14:49:42.387Z,1.17
2023-05-13T14:52:10.461Z,1.52
2023-05-13T14:54:38.569Z,1.30
2023-05-13T14:57:07.959Z,1.48
2023-05-13T14:59:36.291Z,1.30
2023-05-13T15:02:06.162Z,1.23
2023-05-13T15:04:34.310Z,1.20
2023-05-13T15:07:03.702Z,1.35
2023-05-13T15:09:31.889Z,3.03
2023-05-13T15:12:00.043Z,2.22
2023-05-13T15:14:28.387Z,2.05
2023-05-13T15:16:56.617Z,1.52
2023-05-13T15:19:26.074Z,1.60
2023-05-13T15:21:54.366Z,1.35
2023-05-13T15:24:22.467Z,1.00
2023-05-13T15:26:51.026Z,1.30
2023-05-13T15:29:19.322Z,0.90
2023-05-13T15:31:50.075Z,1.10
2023-05-13T15:34:18.151Z,1.02
2023-05-13T15:36:47.650Z,1.20
2023-05-13T15:39:16.584Z,1.15
2023-05-13T15:41:44.746Z,1.25
2023-05-13T15:44:12.816Z,1.40
2023-05-13T15:46:42.214Z,1.08
2023-05-13T15:49:10.403Z,1.27
2023-05-13T15:51:38.445Z,1.38
2023-05-13T15:54:07.944Z,1.15
2023-05-13T15:56:36.026Z,1.40
2023-05-13T15:59:04.106Z,1.10
2023-05-13T16:01:32.209Z,1.55
2023-05-13T16:04:00.440Z,1.00
2023-05-13T16:06:28.589Z,0.93
2023-05-13T16:08:56.885Z,1.00
2023-05-13T16:11:26.460Z,1.50
2023-05-13T16:13:54.509Z,0.90
2023-05-13T16:16:22.924Z,1.10
2023-05-13T16:18:51.137Z,1.10
2023-05-13T16:21:19.491Z,1.25
2023-05-13T16:23:47.579Z,1.38
2023-05-13T16:26:15.618Z,2.00
2023-05-13T16:28:45.067Z,2.00
2023-05-13T16:31:13.174Z,2.42
2023-05-13T16:33:41.283Z,1.67
2023-05-13T16:36:11.328Z,1.48
2023-05-13T16:38:41.408Z,1.55
2023-05-13T16:41:09.705Z,2.45
2023-05-13T16:43:37.848Z,2.08
2023-05-13T16:46:07.417Z,1.50
2023-05-13T16:48:35.800Z,1.35
2023-05-13T16:51:04.345Z,2.33
2023-05-13T16:53:32.392Z,1.60
2023-05-13T16:56:00.860Z,2.17
2023-05-13T16:58:28.909Z,2.00
2023-05-13T17:00:58.533Z,1.92
2023-05-13T17:03:29.089Z,1.88
2023-05-13T17:05:57.277Z,1.80
2023-05-13T17:08:25.445Z,2.10
2023-05-13T17:10:53.481Z,1.67
2023-05-13T17:13:22.249Z,2.10
2023-05-13T17:15:50.357Z,1.80
2023-05-13T17:18:18.439Z,2.17
2023-05-13T17:20:47.863Z,1.98
2023-05-13T17:23:17.300Z,2.15
2023-05-13T17:25:45.434Z,2.22
2023-05-13T17:28:13.497Z,2.50
2023-05-13T17:30:42.180Z,2.42
2023-05-13T17:33:10.355Z,2.00
2023-05-13T17:35:38.748Z,1.70
2023-05-13T17:38:08.355Z,1.80
2023-05-13T17:40:36.535Z,2.00
2023-05-13T17:43:04.639Z,1.98
2023-05-13T17:45:32.793Z,1.90
2023-05-13T17:48:01.054Z,2.20
2023-05-13T17:50:30.480Z,2.30
2023-05-13T17:52:58.636Z,1.90
2023-05-13T17:55:28.283Z,2.03
2023-05-13T17:57:56.627Z,1.83
2023-05-13T18:00:25.610Z,1.80
2023-05-13T18:02:53.699Z,2.42
2023-05-13T18:05:22.346Z,1.95
2023-05-13T18:07:50.439Z,2.17
2023-05-13T18:10:18.594Z,2.30
2023-05-13T18:12:48.030Z,2.03
2023-05-13T18:15:16.248Z,2.15
2023-05-13T18:17:44.378Z,2.10
2023-05-13T18:20:13.469Z,2.95
2023-05-13T18:22:41.624Z,7.20
2023-05-13T18:25:11.125Z,3.67
2023-05-13T18:27:39.222Z,5.18
2023-05-13T18:30:09.881Z,5.15
2023-05-13T18:32:37.961Z,7.15
2023-05-13T18:35:06.809Z,3.92
2023-05-13T18:37:34.867Z,3.78
2023-05-13T18:40:03.172Z,3.17
2023-05-13T18:42:31.428Z,2.70
2023-05-13T18:44:59.529Z,7.07
2023-05-13T18:47:29.005Z,3.92
2023-05-13T18:49:57.065Z,2.88
2023-05-13T18:52:26.171Z,2.78
2023-05-13T18:54:54.275Z,3.13
2023-05-13T18:57:23.808Z,2.83
2023-05-13T18:59:52.697Z,2.92
2023-05-13T19:02:21.371Z,3.40
2023-05-13T19:04:51.067Z,3.05
2023-05-13T19:07:19.119Z,2.67
2023-05-13T19:09:48.388Z,3.10
2023-05-13T19:12:16.501Z,3.17
2023-05-13T19:14:44.623Z,3.20
2023-05-13T19:17:12.876Z,3.17
2023-05-13T19:19:41.143Z,3.75
2023-05-13T19:22:10.809Z,5.90
2023-05-13T19:24:38.869Z,4.78
2023-05-13T19:27:08.086Z,4.20
2023-05-13T19:29:36.450Z,3.35
2023-05-13T19:32:04.739Z,4.15
2023-05-13T19:34:32.870Z,3.85
2023-05-13T19:37:01.155Z,3.67
2023-05-13T19:39:30.610Z,3.42
2023-05-13T19:41:58.732Z,4.03
2023-05-13T19:44:28.031Z,3.42
2023-05-13T19:46:56.636Z,7.57
2023-05-13T19:49:25.460Z,11.60
2023-05-13T19:51:54.206Z,5.78
2023-05-13T19:54:22.322Z,4.57
2023-05-13T19:56:51.787Z,4.00
2023-05-13T19:59:19.892Z,3.88
2023-05-13T20:01:48.246Z,3.40
2023-05-13T20:04:16.509Z,16.30
2023-05-13T20:06:44.698Z,16.67
2023-05-13T20:09:13.025Z,10.90
2023-05-13T20:11:41.110Z,6.80
2023-05-13T20:14:12.380Z,4.63
2023-05-13T20:16:40.674Z,4.72
2023-05-13T20:19:09.755Z,12.52
2023-05-13T20:21:38.030Z,8.77
2023-05-13T20:24:06.300Z,4.47
2023-05-13T20:26:34.905Z,3.35
2023-05-13T20:29:03.137Z,2.85
2023-05-13T20:31:32.619Z,4.03
2023-05-13T20:34:00.768Z,2.92
2023-05-13T20:36:28.832Z,2.78
2023-05-13T20:38:56.985Z,3.10
2023-05-13T20:41:25.156Z,3.30
2023-05-13T20:43:53.187Z,3.05
2023-05-13T20:46:21.293Z,3.90
2023-05-13T20:48:50.826Z,3.38
2023-05-13T20:51:18.915Z,3.22
2023-05-13T20:53:47.554Z,3.08
2023-05-13T20:56:15.594Z,3.75
2023-05-13T20:58:43.659Z,3.35
2023-05-13T21:01:11.853Z,3.22
2023-05-13T21:03:40.049Z,3.47
2023-05-13T21:06:09.585Z,3.67
2023-05-13T21:08:40.019Z,3.50
2023-05-13T21:11:08.461Z,3.20
2023-05-13T21:13:36.522Z,3.30
2023-05-13T21:16:05.688Z,3.30
2023-05-13T21:18:34.106Z,3.90
2023-05-13T21:21:02.907Z,3.80
2023-05-13T21:23:33.390Z,3.92
2023-05-13T21:26:05.234Z,3.58
2023-05-13T21:31:01.318Z,3.08
2023-05-13T21:33:29.683Z,4.53
2023-05-13T21:35:57.769Z,5.63
2023-05-13T21:38:26.013Z,4.90
2023-05-13T21:40:55.609Z,4.47
2023-05-13T21:43:23.690Z,4.55
2023-05-13T21:45:51.706Z,4.70
2023-05-13T21:48:19.866Z,6.13
2023-05-13T21:50:48.063Z,5.40
2023-05-13T21:53:16.162Z,4.55
2023-05-13T21:55:45.421Z,4.97
2023-05-13T21:58:14.918Z,5.00
2023-05-13T22:00:43.121Z,4.50
2023-05-13T22:03:11.338Z,4.03
2023-05-13T22:05:43.980Z,4.20
2023-05-13T22:08:12.227Z,4.80
2023-05-13T22:10:40.977Z,6.80
2023-05-13T22:13:09.030Z,5.90
2023-05-13T22:15:38.521Z,4.40
2023-05-13T22:18:06.889Z,4.10
2023-05-13T22:20:35.176Z,3.70
2023-05-13T22:23:03.526Z,3.72
2023-05-13T22:25:31.580Z,3.35
2023-05-13T22:27:59.696Z,3.60
2023-05-13T22:30:27.841Z,3.58
2023-05-13T22:32:57.325Z,3.70
2023-05-13T22:35:25.461Z,4.13
2023-05-13T22:37:53.592Z,3.83
2023-05-13T22:40:21.885Z,4.20
2023-05-13T22:42:50.093Z,3.65
2023-05-13T22:45:18.319Z,3.67
2023-05-13T22:47:46.404Z,3.22
2023-05-13T22:50:15.852Z,4.03
2023-05-13T22:52:43.924Z,3.35
2023-05-13T22:55:11.984Z,4.00
2023-05-13T22:57:40.038Z,3.85
2023-05-13T23:00:09.505Z,3.55
2023-05-13T23:02:37.577Z,3.40
2023-05-13T23:05:06.188Z,3.25
2023-05-13T23:07:35.736Z,3.45
2023-05-13T23:10:03.928Z,3.33
2023-05-13T23:12:33.368Z,3.22
2023-05-13T23:15:01.412Z,3.03
2023-05-13T23:17:29.476Z,3.13
2023-05-13T23:19:57.590Z,3.40
2023-05-13T23:22:25.820Z,2.80
2023-05-13T23:24:55.247Z,3.78
2023-05-13T23:27:23.308Z,3.38
2023-05-13T23:29:51.348Z,3.17
2023-05-13T23:32:20.054Z,3.53
2023-05-13T23:34:48.145Z,3.38
2023-05-13T23:37:16.433Z,3.00
2023-05-13T23:39:44.885Z,2.85
2023-05-13T23:42:14.324Z,3.10
2023-05-13T23:44:42.362Z,2.97
2023-05-13T23:47:11.962Z,2.53
2023-05-13T23:49:40.062Z,3.13
2023-05-13T23:52:08.306Z,3.40
2023-05-13T23:54:36.392Z,3.13
2023-05-13T23:57:04.561Z,3.20
2023-05-13T23:59:34.027Z,3.03
